CDT,Max TemperatureF,Mean TemperatureF,Min TemperatureF,Max Dew PointF,MeanDew PointF,Min DewpointF,Max Humidity, Mean Humidity, Min Humidity, Max Sea Level PressureIn, Mean Sea Level PressureIn, Min Sea Level PressureIn, Max VisibilityMiles, Mean VisibilityMiles, Min VisibilityMiles, Max Wind SpeedMPH, Mean Wind SpeedMPH, Max Gust SpeedMPH,PrecipitationIn, CloudCover, Events, WindDirDegrees
2011-10-1,71,56,41,37,30,19,70,43,14,30.34,30.26,30.21,10,10,7,10,7,,0.00,0,,146
2011-10-2,77,60,42,39,34,21,71,43,12,30.26,30.21,30.14,10,10,10,15,7,18,0.00,0,,171
2011-10-3,82,64,46,41,34,25,66,38,12,30.21,30.17,30.12,10,10,7,15,8,21,0.00,0,,153
2011-10-4,87,71,55,45,39,32,55,36,14,30.16,30.10,30.04,10,10,7,15,10,20,0.00,0,,167
2011-10-5,82,68,53,45,34,12,67,34,7,30.11,30.06,30.00,10,10,7,22,10,29,0.00,0,,167
2011-10-6,82,68,55,43,39,32,63,38,18,30.03,29.97,29.89,10,10,7,28,13,39,0.00,1,,162
2011-10-7,82,73,64,57,54,43,57,49,40,30.00,29.95,29.91,10,10,7,30,19,40,0.00,4,,176
2011-10-8,75,70,64,61,54,48,83,58,47,30.08,30.04,30.00,10,10,4,23,14,29,0.11,6,Rain,178
2011-10-9,82,70,59,57,51,43,77,56,25,30.16,30.10,30.03,10,10,7,21,8,30,0.00,2,,156
2011-10-10,71,64,57,55,52,48,82,70,50,30.08,30.02,29.95,10,10,7,13,4,,0.03,4,Rain,186
2011-10-11,77,64,50,55,49,43,82,65,31,29.97,29.88,29.77,10,7,0,21,6,25,0.00,3,,167
2011-10-12,69,62,55,55,51,48,82,71,56,29.78,29.73,29.70,10,9,1,16,5,36,0.15,5,Rain,261
2011-10-13,71,60,48,45,36,19,71,46,14,29.86,29.81,29.77,10,10,7,18,8,31,0.01,0,,309
2011-10-14,62,54,46,36,28,14,62,39,16,30.03,29.94,29.84,10,10,10,22,10,32,0.00,0,,305
2011-10-15,71,55,39,41,29,18,70,45,14,30.07,29.97,29.78,10,10,7,16,4,25,0.00,0,,213
2011-10-16,62,53,44,43,36,23,71,50,22,30.08,29.96,29.72,10,10,10,17,9,24,0.00,0,,335
2011-10-17,50,44,39,39,34,27,76,65,46,30.07,30.03,29.99,10,10,5,12,4,17,0.05,4,Rain,318
2011-10-18,53,45,37,36,28,18,70,51,28,30.08,30.04,29.98,10,10,10,22,11,31,0.00,2,,329
2011-10-19,48,39,30,25,20,16,69,49,30,30.11,30.08,30.05,10,10,10,17,10,24,0.00,1,,347
2011-10-20,53,42,32,30,27,25,75,57,33,30.08,30.04,30.01,10,10,10,15,7,20,0.00,1,,328
2011-10-21,68,50,33,34,29,25,75,49,20,30.11,30.07,30.03,10,10,10,13,3,18,0.00,0,,216
2011-10-22,60,51,42,46,40,34,77,63,48,30.14,30.10,30.04,10,10,5,8,3,,0.02,3,Rain,69
2011-10-23,77,57,37,46,38,27,87,54,16,30.03,29.96,29.87,10,9,0,14,3,21,0.00,0,,251
2011-10-24,78,61,44,39,33,21,71,42,12,30.11,30.02,29.84,10,10,10,16,4,22,0.00,0,,181
2011-10-25,73,62,51,50,42,34,56,46,29,29.97,29.77,29.70,10,10,7,18,13,30,0.00,0,,237
2011-10-26,51,46,42,37,34,30,71,62,54,30.12,30.08,30.02,10,10,10,16,12,24,0.00,4,,346
2011-10-27,55,44,33,34,23,7,75,48,14,30.16,30.12,30.10,10,10,10,12,5,18,0.00,1,,298
2011-10-28,57,45,33,28,16,-8,60,36,7,30.20,30.16,30.13,10,10,10,17,8,25,0.00,0,,285
2011-10-29,64,47,30,21,16,9,60,32,11,30.14,30.00,29.82,10,10,10,17,6,25,0.00,0,,173
2011-10-30,59,52,44,34,21,1,66,33,10,30.05,29.97,29.83,10,10,10,22,13,31,0.00,2,,309
2011-10-31,64,47,30,27,18,5,70,38,10,30.09,30.03,29.93,10,10,7,12,4,16,0.00,0,,163